Time;durP1;ratioP1;P1;durP2;ratioP2;P2;SDS_P1;SDS_P2;PMS_P1;PMS_P2;Temp;Humidity;BMP_temperature;BMP_pressure;BME280_temperature;BME280_humidity;BME280_pressure;Samples;Min_cycle;Max_cycle;Signal;HPM_P1;HPM_P2
2023/09/11 00:00:58;;;;;;;2.78;1.40;;;;;;;29.48;31.26;101025.28;5028545;28;20075;-74
2023/09/11 00:03:42;;;;;;;3.50;1.42;;;;;;;29.40;31.76;101022.94;5027145;28;20045;-76
2023/09/11 00:06:13;;;;;;;2.90;1.30;;;;;;;29.29;29.08;101030.56;5018334;28;20362;-75
2023/09/11 00:08:45;;;;;;;2.30;1.10;;;;;;;29.27;29.70;101021.75;5030263;28;20049;-77
2023/09/11 00:11:26;;;;;;;3.60;1.35;;;;;;;29.27;34.46;101028.91;5024078;28;20064;-74
2023/09/11 00:14:37;;;;;;;2.03;1.60;;;;;;;29.20;30.98;101020.31;4471126;27;17362978;-75
2023/09/11 00:17:34;;;;;;;1.80;1.35;;;;;;;29.22;30.79;101026.44;5014039;28;20061;-74
2023/09/11 00:20:27;;;;;;;2.08;1.52;;;;;;;29.23;30.80;101030.84;5059035;28;20114;-75
2023/09/11 00:23:15;;;;;;;3.45;1.30;;;;;;;29.24;30.68;101024.56;5059168;28;20045;-80
2023/09/11 00:25:45;;;;;;;3.80;1.67;;;;;;;29.26;31.13;101029.84;5062586;28;20502;-78
2023/09/11 00:28:14;;;;;;;1.60;1.40;;;;;;;29.24;32.69;101024.56;5053927;28;20094;-73
2023/09/11 00:30:48;;;;;;;2.85;1.58;;;;;;;29.26;31.49;101025.38;5058956;28;20414;-77
2023/09/11 00:33:17;;;;;;;2.88;1.83;;;;;;;29.25;32.04;101026.28;5061521;28;20139;-78
2023/09/11 00:35:46;;;;;;;3.70;1.77;;;;;;;29.30;32.47;101031.41;5059410;28;20124;-76
2023/09/11 00:38:15;;;;;;;1.50;1.40;;;;;;;29.32;33.91;101029.56;5058716;28;20099;-77
2023/09/11 00:40:48;;;;;;;2.40;1.35;;;;;;;29.27;31.30;101024.44;5059025;28;20060;-77
2023/09/11 00:43:17;;;;;;;6.13;1.60;;;;;;;29.22;32.96;101023.78;5058373;28;20048;-77
2023/09/11 00:45:50;;;;;;;3.20;1.50;;;;;;;29.19;32.12;101023.91;5059344;28;20084;-75
2023/09/11 00:48:20;;;;;;;1.35;1.20;;;;;;;29.03;31.45;101029.88;5060706;28;20053;-74
2023/09/11 00:50:51;;;;;;;2.28;1.55;;;;;;;28.93;35.26;101031.22;5055764;28;20406;-77
2023/09/11 00:53:22;;;;;;;2.50;1.60;;;;;;;28.91;32.53;101026.84;5053047;28;20121;-78
2023/09/11 00:55:50;;;;;;;2.45;1.48;;;;;;;28.91;35.05;101030.41;5060159;28;20061;-78
2023/09/11 00:58:19;;;;;;;2.22;1.40;;;;;;;28.93;33.44;101025.88;5056970;28;20044;-77
2023/09/11 01:00:52;;;;;;;2.72;1.38;;;;;;;28.93;32.15;101028.56;5058133;28;20053;-79
2023/09/11 01:03:21;;;;;;;2.88;1.58;;;;;;;28.91;33.50;101027.75;5055568;28;20152;-78
2023/09/11 01:05:52;;;;;;;2.55;1.40;;;;;;;28.92;33.73;101031.28;5057538;28;20112;-74
2023/09/11 01:08:21;;;;;;;2.55;1.70;;;;;;;28.92;31.62;101026.81;5042440;28;20055;-76
2023/09/11 01:10:59;;;;;;;1.80;1.38;;;;;;;28.96;32.34;101027.56;5040350;28;20116;-76
2023/09/11 01:13:27;;;;;;;2.70;1.13;;;;;;;28.97;31.90;101029.25;5032969;28;20072;-75
2023/09/11 01:16:03;;;;;;;2.10;1.17;;;;;;;28.99;31.75;101032.72;5039396;28;20049;-77
2023/09/11 01:18:40;;;;;;;1.95;1.20;;;;;;;28.92;30.71;101031.28;5036398;28;20061;-73
2023/09/11 01:21:49;;;;;;;1.35;0.90;;;;;;;28.82;30.70;101029.00;5037965;28;20053;-77
2023/09/11 01:24:41;;;;;;;5.72;1.00;;;;;;;28.73;30.84;101025.88;5035342;28;20053;-78
2023/09/11 01:27:39;;;;;;;1.92;0.85;;;;;;;28.58;30.83;101030.88;5022287;28;20065;-76
2023/09/11 01:30:12;;;;;;;1.58;1.10;;;;;;;28.46;30.56;101031.34;5029738;28;20103;-75
2023/09/11 01:32:43;;;;;;;2.30;1.10;;;;;;;28.37;31.42;101029.94;5024790;28;20076;-76
2023/09/11 01:35:12;;;;;;;4.40;0.90;;;;;;;28.30;31.00;101038.22;5019629;28;20072;-76
2023/09/11 01:37:40;;;;;;;1.73;0.80;;;;;;;28.22;30.96;101040.31;5026712;28;20057;-75
2023/09/11 01:40:10;;;;;;;1.25;0.80;;;;;;;28.15;30.98;101035.25;5020917;28;20108;-73
2023/09/11 01:42:45;;;;;;;1.08;0.80;;;;;;;28.08;31.43;101039.06;5021865;28;20049;-74
2023/09/11 01:45:16;;;;;;;2.30;0.90;;;;;;;28.02;31.30;101036.66;5014043;28;20049;-74
2023/09/11 01:47:46;;;;;;;1.05;0.90;;;;;;;27.95;31.53;101038.69;5015347;28;20547;-76
2023/09/11 01:50:17;;;;;;;2.55;1.20;;;;;;;27.90;31.63;101034.47;5013174;28;20146;-75
2023/09/11 01:52:48;;;;;;;3.45;1.00;;;;;;;27.86;32.04;101035.53;5017173;28;20053;-75
2023/09/11 01:55:18;;;;;;;1.15;0.90;;;;;;;27.82;32.62;101036.53;5027909;28;20057;-74
2023/09/11 01:57:46;;;;;;;2.53;0.90;;;;;;;27.77;32.34;101040.22;5027882;28;20538;-76
2023/09/11 02:00:17;;;;;;;1.67;1.10;;;;;;;27.74;32.47;101034.13;5019147;28;20049;-75
2023/09/11 02:02:51;;;;;;;1.10;0.90;;;;;;;27.72;32.06;101036.88;5013627;28;20049;-75
2023/09/11 02:05:20;;;;;;;1.63;0.82;;;;;;;27.68;32.14;101045.88;5019812;28;20072;-74
2023/09/11 02:07:52;;;;;;;1.55;0.93;;;;;;;27.65;32.09;101046.00;5019257;28;20392;-75
2023/09/11 02:10:20;;;;;;;1.70;0.85;;;;;;;27.60;32.59;101044.41;5015036;28;20601;-74
2023/09/11 02:12:49;;;;;;;1.52;1.00;;;;;;;27.55;32.48;101053.44;5017306;28;20142;-76
2023/09/11 02:15:22;;;;;;;1.65;1.00;;;;;;;27.46;32.47;101042.28;5006608;28;20499;-75
2023/09/11 02:17:51;;;;;;;1.70;1.02;;;;;;;27.37;32.23;101043.47;5004221;28;20067;-76
2023/09/11 02:20:19;;;;;;;3.05;0.98;;;;;;;27.26;32.08;101048.28;4997266;28;20444;-76
2023/09/11 02:22:48;;;;;;;2.70;0.90;;;;;;;27.15;31.81;101048.66;4997520;28;20042;-75
2023/09/11 02:25:23;;;;;;;1.65;1.15;;;;;;;27.05;31.67;101049.88;5007721;28;20046;-75
2023/09/11 02:27:52;;;;;;;5.45;1.20;;;;;;;26.95;34.13;101054.66;5000878;28;20054;-75
2023/09/11 02:30:22;;;;;;;3.20;1.00;;;;;;;26.83;33.40;101055.94;5004254;28;20050;-76
2023/09/11 02:32:51;;;;;;;3.22;1.02;;;;;;;26.71;37.96;101053.69;5007644;28;20065;-76
2023/09/11 02:35:25;;;;;;;4.43;1.00;;;;;;;26.60;40.04;101058.47;5010777;28;20050;-75
2023/09/11 02:37:54;;;;;;;3.45;1.00;;;;;;;26.40;39.42;101061.72;5007486;28;20054;-75
2023/09/11 02:40:22;;;;;;;3.47;1.00;;;;;;;26.19;37.24;101058.81;5013936;28;20049;-74
2023/09/11 02:42:51;;;;;;;4.53;1.45;;;;;;;25.98;35.95;101055.03;5008636;28;20058;-75
2023/09/11 02:45:21;;;;;;;3.42;1.25;;;;;;;25.85;37.98;101054.50;5005537;28;20050;-75
2023/09/11 02:47:50;;;;;;;1.30;0.90;;;;;;;25.71;38.15;101057.53;5018620;28;20754;-76
2023/09/11 02:50:18;;;;;;;4.35;1.20;;;;;;;25.61;38.69;101055.19;5014416;28;20103;-75
2023/09/11 02:52:47;;;;;;;3.70;1.50;;;;;;;25.52;40.59;101066.94;5027378;28;20054;-75
2023/09/11 02:55:16;;;;;;;1.92;0.90;;;;;;;25.41;40.33;101071.66;5021144;28;20050;-75
2023/09/11 02:57:49;;;;;;;1.67;1.13;;;;;;;25.29;39.35;101068.44;5013721;28;20049;-76
2023/09/11 03:00:18;;;;;;;1.98;1.00;;;;;;;25.17;39.64;101075.78;4997392;28;20603;-76
2023/09/11 03:02:48;;;;;;;3.13;1.15;;;;;;;25.05;39.92;101079.63;5006184;28;20053;-76
2023/09/11 03:05:17;;;;;;;1.20;0.75;;;;;;;24.90;41.22;101080.00;5013350;28;20049;-77
2023/09/11 03:07:46;;;;;;;1.55;1.00;;;;;;;24.76;40.44;101081.22;5006606;28;20050;-76
2023/09/11 03:10:14;;;;;;;3.65;0.80;;;;;;;24.66;41.43;101080.56;5003445;28;20056;-76
2023/09/11 03:12:43;;;;;;;7.25;1.25;;;;;;;24.57;43.77;101091.34;5013858;28;20755;-76
2023/09/11 03:15:12;;;;;;;1.23;0.73;;;;;;;24.49;41.16;101084.50;5003189;28;20050;-76
2023/09/11 03:17:41;;;;;;;2.38;0.88;;;;;;;24.41;42.01;101093.44;4999029;28;20771;-75
2023/09/11 03:20:22;;;;;;;1.27;0.80;;;;;;;24.30;44.52;101103.38;4998055;28;20050;-75
2023/09/11 03:22:52;;;;;;;1.50;0.82;;;;;;;24.20;43.49;101101.88;4997919;28;20141;-75
2023/09/11 03:25:20;;;;;;;1.20;0.70;;;;;;;24.12;41.56;101099.41;4998420;28;20065;-75
2023/09/11 03:27:49;;;;;;;1.23;0.80;;;;;;;24.04;41.73;101104.81;4994914;28;20083;-75
2023/09/11 03:30:21;;;;;;;2.05;0.80;;;;;;;23.99;40.96;101104.06;5000431;28;20049;-75
2023/09/11 03:32:52;;;;;;;1.45;0.80;;;;;;;23.82;42.28;101092.94;5011952;28;20052;-76
2023/09/11 03:35:21;;;;;;;2.15;0.80;;;;;;;23.82;41.24;101116.72;4997275;28;20101;-75
2023/09/11 03:37:49;;;;;;;1.77;0.80;;;;;;;23.73;41.80;101114.22;5014658;28;20580;-76
2023/09/11 03:40:20;;;;;;;2.40;0.80;;;;;;;23.65;41.54;101116.16;5000751;28;20069;-76
2023/09/11 03:42:48;;;;;;;0.93;0.55;;;;;;;23.57;40.65;101122.47;5003864;28;20046;-76
2023/09/11 03:45:17;;;;;;;2.63;0.70;;;;;;;23.51;42.60;101121.72;5008103;28;20095;-76
2023/09/11 03:47:45;;;;;;;1.60;0.60;;;;;;;23.44;40.86;101120.94;5004437;28;20059;-75
2023/09/11 03:50:14;;;;;;;2.17;0.60;;;;;;;23.35;41.55;101116.69;4997056;28;20050;-77
2023/09/11 03:52:47;;;;;;;3.58;0.63;;;;;;;23.31;42.37;101122.06;5005616;28;20050;-76
2023/09/11 03:55:16;;;;;;;1.50;0.70;;;;;;;23.25;43.30;101119.50;5000187;28;20057;-75
2023/09/11 03:57:44;;;;;;;2.13;0.70;;;;;;;23.18;41.63;101116.09;5000590;28;20262;-76
2023/09/11 04:00:14;;;;;;;2.17;0.90;;;;;;;23.14;42.06;101117.06;5008626;28;20046;-75
2023/09/11 04:02:46;;;;;;;3.83;0.73;;;;;;;23.07;45.98;101123.34;5007025;28;20052;-76
2023/09/11 04:05:14;;;;;;;3.58;0.82;;;;;;;22.98;46.30;101130.47;5008278;28;20057;-75
2023/09/11 04:07:43;;;;;;;3.28;0.80;;;;;;;22.89;47.35;101129.75;5000526;28;20053;-75
2023/09/11 04:10:13;;;;;;;3.17;0.80;;;;;;;22.75;48.31;101127.34;4997968;28;20053;-73
2023/09/11 04:12:42;;;;;;;4.72;0.90;;;;;;;22.68;47.29;101141.50;5010811;28;20043;-75
2023/09/11 04:15:11;;;;;;;2.08;0.80;;;;;;;22.56;44.77;101143.44;5001044;28;20546;-76
2023/09/11 04:17:39;;;;;;;2.42;0.80;;;;;;;22.48;44.45;101141.78;5003581;28;20109;-76
2023/09/11 04:20:09;;;;;;;5.55;0.85;;;;;;;22.43;44.45;101146.25;5008004;28;20534;-74
2023/09/11 04:22:38;;;;;;;1.10;0.65;;;;;;;22.38;44.33;101143.69;5002507;28;20050;-75
2023/09/11 04:25:09;;;;;;;0.73;0.60;;;;;;;22.33;44.16;101137.56;5006445;28;20054;-76
2023/09/11 04:27:39;;;;;;;1.15;0.77;;;;;;;22.28;44.45;101140.25;5006233;28;20041;-75
2023/09/11 04:30:09;;;;;;;1.02;0.75;;;;;;;22.20;44.88;101136.84;4999492;28;20102;-76
2023/09/11 04:32:37;;;;;;;1.52;0.73;;;;;;;22.14;45.19;101134.28;5005553;28;20045;-73
2023/09/11 04:35:07;;;;;;;2.70;0.63;;;;;;;22.07;46.45;101136.09;5005982;28;20760;-75
2023/09/11 04:37:35;;;;;;;4.25;0.98;;;;;;;22.01;47.55;101140.56;5002683;28;20050;-75
2023/09/11 04:40:05;;;;;;;1.60;0.68;;;;;;;21.95;48.25;101138.91;5011670;28;20101;-75
2023/09/11 04:42:33;;;;;;;2.70;0.65;;;;;;;21.88;48.77;101134.59;5003413;28;20054;-76
2023/09/11 04:45:04;;;;;;;2.17;0.63;;;;;;;21.79;47.56;101140.81;5006771;28;20094;-75
2023/09/11 04:47:37;;;;;;;3.60;0.80;;;;;;;21.70;50.51;101146.19;5009693;28;20110;-75
2023/09/11 04:50:06;;;;;;;1.15;0.60;;;;;;;21.60;49.66;101144.53;5009048;28;20069;-74
2023/09/11 04:52:35;;;;;;;2.78;1.13;;;;;;;21.49;49.43;101142.00;5003316;28;20492;-73
2023/09/11 04:55:03;;;;;;;5.57;1.00;;;;;;;21.36;50.32;101145.59;5002062;28;20066;-74
2023/09/11 04:57:36;;;;;;;6.65;1.13;;;;;;;21.28;51.90;101143.91;5008036;28;20042;-75
2023/09/11 05:00:09;;;;;;;5.80;1.20;;;;;;;21.16;52.27;101153.66;5009697;28;20079;-75
2023/09/11 05:02:38;;;;;;;6.18;1.95;;;;;;;20.93;50.63;101146.81;5012634;28;20145;-72
2023/09/11 05:05:07;;;;;;;4.15;1.20;;;;;;;20.78;51.23;101154.81;5009493;28;20049;-74
2023/09/11 05:07:35;;;;;;;4.95;1.50;;;;;;;20.68;51.54;101147.00;5012374;28;20103;-74
2023/09/11 05:10:05;;;;;;;3.80;1.42;;;;;;;20.62;52.88;101151.41;5005662;28;20093;-75
2023/09/11 05:12:34;;;;;;;4.10;1.30;;;;;;;20.54;52.53;101147.91;5009198;28;20042;-74
2023/09/11 05:15:03;;;;;;;7.50;1.05;;;;;;;20.49;52.77;101155.81;5002546;28;20530;-75
2023/09/11 05:17:35;;;;;;;4.47;1.10;;;;;;;20.36;53.86;101154.13;5007602;28;20480;-74
2023/09/11 05:20:06;;;;;;;3.40;1.50;;;;;;;20.21;53.29;101153.31;5013251;28;20064;-74
2023/09/11 05:22:35;;;;;;;5.30;1.33;;;;;;;20.15;54.24;101160.34;5010937;28;20128;-75
2023/09/11 05:25:03;;;;;;;3.88;1.10;;;;;;;20.09;54.03;101161.25;5002134;28;20109;-76
2023/09/11 05:27:32;;;;;;;2.92;1.13;;;;;;;20.02;54.44;101156.84;5014502;28;20069;-75
2023/09/11 05:30:00;;;;;;;3.65;1.17;;;;;;;19.99;53.78;101164.75;5011482;28;20042;-76
2023/09/11 05:32:32;;;;;;;4.90;1.15;;;;;;;19.93;53.58;101164.75;5009269;28;20042;-75
2023/09/11 05:35:04;;;;;;;2.95;1.13;;;;;;;19.86;53.33;101172.69;5007536;28;20158;-77
2023/09/11 05:37:33;;;;;;;3.20;1.20;;;;;;;19.81;53.08;101170.94;5016564;28;20046;-75
2023/09/11 05:40:02;;;;;;;4.07;1.05;;;;;;;19.75;53.37;101176.22;5019440;28;20082;-75
2023/09/11 05:42:32;;;;;;;2.05;1.10;;;;;;;19.69;53.57;101182.31;5029473;28;20038;-74
2023/09/11 05:45:01;;;;;;;1.20;0.90;;;;;;;19.62;53.86;101177.94;5024687;28;20061;-74
2023/09/11 05:47:30;;;;;;;3.67;0.88;;;;;;;19.57;53.14;101182.31;5012647;28;20038;-75
2023/09/11 05:50:00;;;;;;;0.98;0.80;;;;;;;19.53;53.25;101177.94;5001843;28;20112;-75
2023/09/11 05:52:34;;;;;;;1.17;0.77;;;;;;;19.49;52.89;101174.44;5012427;28;20424;-76
2023/09/11 05:55:03;;;;;;;2.60;1.15;;;;;;;19.41;52.65;101161.31;5009190;28;20058;-73
2023/09/11 05:57:31;;;;;;;4.63;0.90;;;;;;;19.48;53.93;101172.69;5011210;28;20042;-74
2023/09/11 06:00:01;;;;;;;1.42;0.95;;;;;;;19.45;55.93;101172.72;5003120;28;20066;-76
2023/09/11 06:02:29;;;;;;;0.80;0.63;;;;;;;19.40;56.47;101180.59;5014177;28;20129;-74
2023/09/11 06:05:01;;;;;;;2.53;0.88;;;;;;;19.35;56.50;101177.06;5002034;28;20190;-75
2023/09/11 06:07:31;;;;;;;3.00;0.80;;;;;;;19.30;55.69;101181.44;5005893;28;20412;-75
2023/09/11 06:09:59;;;;;;;1.73;0.93;;;;;;;19.19;55.54;101167.44;5008301;28;20054;-75
2023/09/11 06:12:30;;;;;;;1.40;1.00;;;;;;;19.17;57.06;101172.69;5008344;28;20052;-74
2023/09/11 06:15:06;;;;;;;2.30;0.93;;;;;;;19.13;58.13;101172.69;5011066;28;20149;-74
2023/09/11 06:17:34;;;;;;;2.58;0.93;;;;;;;19.00;57.55;101164.78;4999986;28;20110;-75
2023/09/11 06:20:07;;;;;;;2.78;1.15;;;;;;;19.02;56.62;101172.69;5008878;28;20053;-75
2023/09/11 06:22:38;;;;;;;1.83;1.05;;;;;;;18.98;57.47;101170.91;5007139;28;20168;-75
2023/09/11 06:25:07;;;;;;;5.45;1.35;;;;;;;18.92;57.55;101163.94;5005704;28;20054;-75
2023/09/11 06:27:35;;;;;;;4.60;1.13;;;;;;;18.87;57.45;101163.03;5006473;28;20042;-75
2023/09/11 06:30:05;;;;;;;5.32;1.08;;;;;;;18.82;59.28;101163.00;5005950;28;20046;-76
2023/09/11 06:32:37;;;;;;;4.03;1.25;;;;;;;18.76;59.83;101164.72;5011371;28;20056;-74
2023/09/11 06:35:06;;;;;;;1.47;0.90;;;;;;;18.70;59.53;101159.47;5000210;28;20058;-76
2023/09/11 06:37:35;;;;;;;2.70;0.98;;;;;;;18.67;60.21;101154.22;5012370;28;20346;-74
2023/09/11 06:40:07;;;;;;;4.72;0.90;;;;;;;18.62;60.11;101155.09;5007646;28;20051;-75
2023/09/11 06:42:35;;;;;;;;;;;;;;;18.60;60.17;101159.44;5006095;28;20058;-73
2023/09/11 06:45:04;;;;;;;10.43;1.30;;;;;;;18.58;60.44;101155.09;5004824;28;19966;-75
2023/09/11 06:47:36;;;;;;;4.22;1.02;;;;;;;18.53;61.90;101156.78;5005344;28;20144;-74
2023/09/11 06:50:04;;;;;;;2.53;1.27;;;;;;;18.49;64.79;101155.91;5012810;28;20758;-75
2023/09/11 06:52:38;;;;;;;6.32;1.40;;;;;;;18.45;64.84;101159.41;5008036;28;20046;-75
2023/09/11 06:55:10;;;;;;;5.07;0.90;;;;;;;18.42;65.42;101162.88;5009483;28;20053;-74
2023/09/11 06:57:42;;;;;;;2.33;1.42;;;;;;;18.38;65.33;101157.63;5005303;28;20133;-74
2023/09/11 07:00:12;;;;;;;3.53;1.20;;;;;;;18.36;65.00;101154.13;5003088;28;20108;-74
2023/09/11 07:02:41;;;;;;;1.83;0.88;;;;;;;18.32;64.98;101157.59;5003373;28;20133;-75
2023/09/11 07:05:12;;;;;;;3.05;1.40;;;;;;;18.26;64.53;101153.22;5001372;28;20065;-76
2023/09/11 07:07:41;;;;;;;5.65;1.48;;;;;;;18.24;63.58;101156.69;5002817;28;20061;-73
2023/09/11 07:10:12;;;;;;;2.75;1.50;;;;;;;18.21;63.50;101155.81;5011977;28;20058;-73
2023/09/11 07:12:41;;;;;;;5.17;1.70;;;;;;;18.16;64.38;101162.78;5006046;28;20163;-74
2023/09/11 07:15:12;;;;;;;3.80;1.42;;;;;;;18.13;64.89;101154.03;4999650;28;20081;-73
2023/09/11 07:17:41;;;;;;;3.55;1.20;;;;;;;18.11;66.16;101154.00;5009651;28;20651;-74
2023/09/11 07:20:10;;;;;;;3.92;1.55;;;;;;;18.00;65.43;101145.22;5008414;28;20054;-74
2023/09/11 07:22:39;;;;;;;3.38;1.40;;;;;;;18.06;65.79;101153.13;5006575;28;20128;-75
2023/09/11 07:25:12;;;;;;;3.83;1.42;;;;;;;18.04;67.35;101162.69;5009913;28;20057;-75
2023/09/11 07:27:41;;;;;;;2.95;1.65;;;;;;;18.02;67.04;101160.94;5008811;28;20045;-74
2023/09/11 07:30:10;;;;;;;8.95;1.55;;;;;;;17.98;66.19;101158.31;5012852;28;20054;-73
2023/09/11 07:32:39;;;;;;;9.27;1.70;;;;;;;17.88;65.79;101148.66;5004376;28;20046;-73
2023/09/11 07:35:10;;;;;;;7.03;1.95;;;;;;;17.94;66.06;101159.16;4998056;28;20061;-74
2023/09/11 07:37:43;;;;;;;4.60;1.20;;;;;;;17.90;65.93;101165.25;5011067;28;20078;-75
2023/09/11 07:40:14;;;;;;;4.07;1.20;;;;;;;17.88;65.59;101169.59;5016675;28;20322;-76
2023/09/11 07:42:42;;;;;;;8.23;1.40;;;;;;;17.85;65.13;101168.72;5007723;28;20037;-74
2023/09/11 07:45:13;;;;;;;2.65;1.10;;;;;;;17.81;65.86;101165.19;5000951;28;20163;-75
2023/09/11 07:47:42;;;;;;;3.30;1.20;;;;;;;17.79;65.55;101167.75;5013631;28;20108;-74
2023/09/11 07:50:11;;;;;;;4.72;1.30;;;;;;;17.77;66.79;101161.66;5009721;28;20072;-73
2023/09/11 07:52:39;;;;;;;4.28;1.27;;;;;;;17.77;66.84;101164.28;5005458;28;20046;-75
2023/09/11 07:55:09;;;;;;;3.08;0.80;;;;;;;17.74;65.59;101161.63;5003505;28;20097;-75
2023/09/11 07:57:41;;;;;;;1.30;0.90;;;;;;;17.73;65.55;101157.28;5012633;28;20046;-75
2023/09/11 08:00:11;;;;;;;1.73;0.63;;;;;;;17.73;65.45;101156.38;5006925;28;20053;-76
2023/09/11 08:02:39;;;;;;;1.55;0.90;;;;;;;17.69;66.57;101155.50;4999933;28;20061;-75
2023/09/11 08:05:08;;;;;;;1.90;1.10;;;;;;;17.61;69.09;101151.06;5007787;28;20144;-73
2023/09/11 08:07:37;;;;;;;2.03;1.02;;;;;;;17.53;70.50;101158.88;5005442;28;20049;-73
2023/09/11 08:10:09;;;;;;;2.88;0.85;;;;;;;17.41;70.78;101156.13;5007384;28;20534;-74
2023/09/11 08:12:39;;;;;;;2.95;0.95;;;;;;;17.32;70.89;101159.59;5012393;28;20049;-75
2023/09/11 08:15:09;;;;;;;1.27;0.95;;;;;;;17.30;70.31;101158.69;5010173;28;20384;-75
2023/09/11 08:17:38;;;;;;;1.17;0.80;;;;;;;17.32;70.03;101165.69;5014701;28;20041;-75
2023/09/11 08:20:17;;;;;;;1.77;1.00;;;;;;;17.34;69.97;101170.91;5019725;28;20112;-76
2023/09/11 08:22:45;;;;;;;1.08;0.82;;;;;;;17.35;69.99;101170.94;5026145;28;20046;-75
2023/09/11 08:25:15;;;;;;;1.40;0.82;;;;;;;17.37;69.49;101179.66;5026731;28;20047;-75
2023/09/11 08:27:45;;;;;;;2.38;0.90;;;;;;;17.38;69.11;101170.97;5028533;28;20053;-75
2023/09/11 08:30:14;;;;;;;3.22;1.13;;;;;;;17.41;69.27;101174.44;5018252;28;20045;-75
2023/09/11 08:32:43;;;;;;;5.32;0.90;;;;;;;17.41;69.06;101170.13;5014903;28;20192;-75
2023/09/11 08:35:11;;;;;;;1.75;1.17;;;;;;;17.43;68.39;101175.34;5012700;28;20065;-75
2023/09/11 08:37:40;;;;;;;2.50;0.93;;;;;;;17.45;68.06;101166.63;5012260;28;20488;-73
2023/09/11 08:40:11;;;;;;;2.35;0.93;;;;;;;17.48;67.66;101163.19;5013867;28;20042;-72
2023/09/11 08:42:40;;;;;;;1.13;0.80;;;;;;;17.50;70.01;101158.81;5016026;28;20136;-74
2023/09/11 08:45:10;;;;;;;2.25;1.23;;;;;;;17.46;71.76;101149.22;5013039;28;20057;-73
2023/09/11 08:47:49;;;;;;;1.67;0.93;;;;;;;17.51;72.55;101157.97;5012605;28;20757;-74
2023/09/11 08:50:22;;;;;;;2.50;0.77;;;;;;;17.37;73.07;101140.44;5008272;28;20046;-74
2023/09/11 08:52:51;;;;;;;2.95;1.60;;;;;;;17.43;72.83;101157.94;5007870;28;20585;-75
2023/09/11 08:55:21;;;;;;;2.95;1.00;;;;;;;17.42;71.76;101160.53;5006896;28;20065;-74
2023/09/11 08:57:53;;;;;;;2.55;1.10;;;;;;;17.42;71.78;101156.16;5005802;28;20690;-75
2023/09/11 09:00:24;;;;;;;2.33;1.20;;;;;;;17.42;71.78;101150.06;5010110;28;20050;-75
2023/09/11 09:02:53;;;;;;;2.93;0.90;;;;;;;17.40;72.05;101149.16;5014095;28;21157;-74
2023/09/11 09:05:23;;;;;;;2.10;1.00;;;;;;;17.37;72.02;101145.66;5015697;28;20295;-74
2023/09/11 09:07:53;;;;;;;2.63;1.00;;;;;;;17.36;72.70;101143.94;5009761;28;20058;-74
2023/09/11 09:10:26;;;;;;;1.92;1.08;;;;;;;17.36;72.47;101156.09;5008890;28;20058;-74
2023/09/11 09:12:55;;;;;;;2.85;1.25;;;;;;;17.34;72.66;101145.66;5009681;28;20619;-74
2023/09/11 09:15:27;;;;;;;10.23;1.63;;;;;;;17.30;72.99;101146.47;5012076;28;20614;-75
2023/09/11 09:18:00;;;;;;;2.57;0.90;;;;;;;17.27;72.90;101151.69;5012071;28;20054;-73
2023/09/11 09:20:33;;;;;;;2.78;1.17;;;;;;;17.23;72.47;101157.75;5010360;28;20637;-75
2023/09/11 09:23:03;;;;;;;3.60;0.90;;;;;;;17.20;73.16;101147.25;5009632;28;20073;-75
2023/09/11 09:25:32;;;;;;;3.63;1.08;;;;;;;17.19;73.72;101153.34;5003498;28;20109;-74
2023/09/11 09:28:01;;;;;;;2.70;0.93;;;;;;;17.17;73.45;101149.84;5009284;28;20061;-75
2023/09/11 09:30:33;;;;;;;5.25;0.90;;;;;;;17.15;74.79;101151.56;5012692;28;20776;-74
2023/09/11 09:33:04;;;;;;;2.22;0.95;;;;;;;17.14;74.75;101157.69;5010680;28;20053;-75
2023/09/11 09:35:34;;;;;;;1.02;0.68;;;;;;;17.05;74.78;101152.38;5007735;28;20058;-74
2023/09/11 09:38:03;;;;;;;1.70;0.90;;;;;;;17.05;74.60;101161.09;5002759;28;20630;-74
2023/09/11 09:40:34;;;;;;;2.05;0.70;;;;;;;17.01;75.59;101168.88;5009266;28;20050;-74
2023/09/11 09:43:04;;;;;;;2.75;1.02;;;;;;;16.95;75.71;101164.47;5011839;28;20117;-75
2023/09/11 09:45:37;;;;;;;1.95;0.82;;;;;;;16.88;77.15;101168.78;5005477;28;20082;-73
2023/09/11 09:48:20;;;;;;;1.55;0.70;;;;;;;16.78;77.51;101155.56;5009533;28;20077;-75
2023/09/11 09:50:59;;;;;;;2.08;0.77;;;;;;;16.80;76.87;101165.19;5007217;28;20049;-74
2023/09/11 09:53:30;;;;;;;2.33;0.88;;;;;;;16.81;77.35;101164.31;5009521;28;20053;-75
2023/09/11 09:56:03;;;;;;;2.78;1.02;;;;;;;16.82;77.20;101162.59;5010088;28;20058;-74
2023/09/11 09:58:34;;;;;;;6.20;0.90;;;;;;;16.83;77.08;101159.97;5009935;28;20137;-75
2023/09/11 10:01:11;;;;;;;7.00;0.70;;;;;;;16.83;77.15;101162.59;5004726;28;20060;-74
2023/09/11 10:03:42;;;;;;;2.83;1.02;;;;;;;16.83;77.54;101162.59;5008604;28;20054;-74
2023/09/11 10:06:12;;;;;;;5.32;1.02;;;;;;;16.86;76.08;101166.97;5006406;28;20105;-75
2023/09/11 10:08:41;;;;;;;6.68;1.15;;;;;;;16.85;76.97;101158.25;5007496;28;20056;-74
2023/09/11 10:11:26;;;;;;;5.90;0.90;;;;;;;16.84;76.63;101161.75;5009440;28;20088;-74
2023/09/11 10:13:57;;;;;;;1.95;0.73;;;;;;;16.80;76.26;101159.09;5009327;28;20058;-74
2023/09/11 10:16:28;;;;;;;3.72;0.73;;;;;;;16.77;76.47;101159.91;5009581;28;20060;-75
2023/09/11 10:18:58;;;;;;;1.67;0.60;;;;;;;16.76;75.78;101168.59;5008960;28;20053;-74
2023/09/11 10:21:28;;;;;;;1.13;0.60;;;;;;;16.72;75.78;101166.78;5003618;28;20089;-75
2023/09/11 10:23:57;;;;;;;0.50;0.50;;;;;;;16.69;76.31;101178.09;5005728;28;20050;-76
2023/09/11 10:26:29;;;;;;;2.25;0.77;;;;;;;16.66;75.87;101171.97;5012922;28;20046;-75
2023/09/11 10:29:04;;;;;;;5.07;1.20;;;;;;;16.64;76.79;101173.69;5007577;28;20116;-74
2023/09/11 10:31:37;;;;;;;1.17;0.70;;;;;;;16.63;76.47;101172.81;5009051;28;20315;-74
2023/09/11 10:34:09;;;;;;;0.80;0.65;;;;;;;16.63;76.49;101172.81;5008170;28;20049;-74
2023/09/11 10:36:40;;;;;;;1.27;0.82;;;;;;;16.62;76.33;101173.66;5004976;28;20042;-75
2023/09/11 10:39:11;;;;;;;3.27;0.70;;;;;;;16.60;76.09;101178.00;5008045;28;20046;-76
2023/09/11 10:41:40;;;;;;;5.82;0.80;;;;;;;16.58;76.39;101168.38;5006875;28;20761;-75
2023/09/11 10:44:10;;;;;;;1.80;0.77;;;;;;;16.57;77.31;101179.72;5009168;28;20101;-75
2023/09/11 10:46:40;;;;;;;0.88;0.80;;;;;;;16.56;78.17;101176.22;5011728;28;20060;-74
2023/09/11 10:49:16;;;;;;;1.73;0.75;;;;;;;16.53;77.66;101171.81;5008451;28;20037;-75
2023/09/11 10:51:47;;;;;;;0.82;0.57;;;;;;;16.50;77.50;101170.91;5006001;28;20061;-73
2023/09/11 10:54:22;;;;;;;1.42;1.00;;;;;;;16.48;77.54;101172.63;5009633;28;20398;-74
2023/09/11 10:56:51;;;;;;;1.42;0.80;;;;;;;16.43;77.91;101174.31;5003780;28;20459;-74
2023/09/11 10:59:23;;;;;;;2.15;0.90;;;;;;;16.40;77.35;101169.94;5005601;28;20042;-74
2023/09/11 11:01:53;;;;;;;3.90;1.00;;;;;;;16.38;78.65;101171.66;5010075;28;20046;-74
2023/09/11 11:04:23;;;;;;;1.25;0.80;;;;;;;16.37;78.59;101172.50;5009988;28;20185;-74
2023/09/11 11:06:56;;;;;;;5.07;1.05;;;;;;;16.36;79.48;101162.91;5013559;28;20054;-73
2023/09/11 11:09:31;;;;;;;2.35;0.90;;;;;;;16.37;79.64;101166.41;5006226;28;20049;-73
2023/09/11 11:12:03;;;;;;;1.50;0.85;;;;;;;16.37;79.41;101163.78;5000844;28;20050;-75
2023/09/11 11:14:32;;;;;;;1.45;0.80;;;;;;;16.31;79.46;101162.88;5006202;28;20069;-76
2023/09/11 11:17:08;;;;;;;1.08;0.70;;;;;;;16.20;79.45;101147.94;5003183;28;20053;-75
2023/09/11 11:19:37;;;;;;;1.95;0.65;;;;;;;16.25;78.83;101165.38;5008843;28;20065;-74
2023/09/11 11:22:08;;;;;;;3.63;0.77;;;;;;;16.21;79.15;101167.94;5005403;28;20057;-75
2023/09/11 11:24:52;;;;;;;3.70;0.95;;;;;;;16.17;79.38;101161.81;5003045;28;20052;-74
2023/09/11 11:27:21;;;;;;;1.83;0.77;;;;;;;16.15;79.72;101167.84;5003798;28;20054;-74
2023/09/11 11:29:52;;;;;;;1.67;0.75;;;;;;;16.15;80.07;101163.53;5006476;28;20118;-75
2023/09/11 11:32:23;;;;;;;1.60;0.95;;;;;;;16.15;80.40;101157.41;5000911;28;20046;-74
2023/09/11 11:34:53;;;;;;;3.92;0.77;;;;;;;16.14;80.83;101161.75;5011686;28;20078;-74
2023/09/11 11:37:25;;;;;;;1.52;0.98;;;;;;;16.12;79.68;101169.56;5008036;28;20148;-75
2023/09/11 11:39:55;;;;;;;3.97;0.70;;;;;;;16.08;79.73;101162.56;5006838;28;20137;-74
2023/09/11 11:42:24;;;;;;;1.77;0.68;;;;;;;16.08;80.01;101166.88;5006511;28;20498;-74